1984 IKE (1984239N08146)


On this page: IBTrACS data - Map and Plots - Positions - Intensities - Original source data

Summary

Start Aug 26
End Sep 6
Basin WP
LMI 125 kt
Sources jtwc_wp
tokyo
cma
hko
td9636
In WMO? Yes
Previous storm 1984 JUNE (WP)
Previous in basin 1984 JUNE (WP)
Concurrent storms 1984 TD0824 (WP)
1984 LALA (EP)
1984 JUNE (WP)
1984 IKE (WP)
1984 LOWELL (EP)
1984 ARTHUR (NA)
1984 BERTHA (NA)
1984 CESAR (NA)
1984 MOKE (EP)
1984 MARIE (EP)
1984 MISSING (NA)
Next in basin Missing
Next storm 1984 LOWELL (EP)

top of page IBTrACS Data: File Access

top of page HURSAT Data: File Access

Image of storm

top of page Plots:

Map of storm track will not appear if FTP is down
Time series of cyclone Maximum Sustained Wind will not appear if FTP is down
Time series of cyclone Minimum Central Pressure will not appear if FTP is down

top of page Track Data:Position

jtwc_wp tokyo cma hko td9636
Date Lat Lon Lat Lon Lat Lon Lat Lon Lat Lon
1984-08-26 00:00:00 8.2 146.0 8.2 146.0
1984-08-26 06:00:00 8.8 145.9 9.0 149.0 8.8 146.0
1984-08-26 12:00:00 9.4 145.8 9.5 147.6 9.4 145.8
1984-08-26 18:00:00 10.2 145.5 10.0 146.3 10.5 145.9 10.1 145.4
1984-08-27 00:00:00 10.8 144.9 10.7 145.3 11.0 145.0 10.5 145.0 10.8 144.9
1984-08-27 06:00:00 11.4 144.4 11.4 144.4 11.6 144.4 11.2 144.4 11.4 144.4
1984-08-27 12:00:00 11.9 143.9 12.0 143.8 11.9 143.8 11.9 143.8 11.9 143.9
1984-08-27 18:00:00 12.5 143.3 12.6 143.1 12.5 143.2 12.5 143.2 12.6 143.3
1984-08-28 00:00:00 13.2 142.6 13.2 142.4 13.2 142.4 13.1 142.4 13.2 142.6
1984-08-28 06:00:00 13.6 141.8 13.7 141.8 13.7 141.8 13.2 141.8 13.4 141.9
1984-08-28 12:00:00 13.2 141.2 13.2 141.4 13.4 141.3 13.0 141.1 13.2 141.2
1984-08-28 18:00:00 12.6 140.9 12.5 141.0 12.7 141.0 12.7 140.6 12.8 140.7
1984-08-29 00:00:00 12.3 140.3 12.3 140.4 12.3 140.4 12.4 140.0 12.3 140.3
1984-08-29 06:00:00 12.2 139.6 12.2 139.8 12.2 139.8 12.1 139.5 12.2 139.7
1984-08-29 12:00:00 12.0 139.0 12.0 139.0 12.1 139.0 11.8 139.1 12.0 139.0
1984-08-29 18:00:00 11.6 138.5 11.5 138.5 11.5 138.5 11.4 138.5 11.5 138.5
1984-08-30 00:00:00 11.0 137.9 11.0 137.9 11.0 137.9 11.1 137.9 11.0 137.9
1984-08-30 06:00:00 10.6 137.1 10.8 137.1 10.7 137.1 10.8 137.2 10.6 137.2
1984-08-30 12:00:00 10.4 136.3 10.6 136.3 10.6 136.3 10.5 136.3 10.4 136.3
1984-08-30 18:00:00 10.3 135.4 10.2 135.5 10.2 135.4 10.4 135.4 10.2 135.4
1984-08-31 00:00:00 10.1 134.4 10.2 134.5 10.2 134.5 10.2 134.5 10.1 134.4
1984-08-31 06:00:00 10.0 133.3 10.2 133.3 10.1 133.3 10.1 133.3 10.0 133.3
1984-08-31 12:00:00 9.9 132.1 10.0 132.0 9.9 132.0 10.0 132.0 9.9 132.1
1984-08-31 18:00:00 9.6 130.7 9.8 130.6 9.8 130.8 9.8 130.7 9.8 130.8
1984-09-01 00:00:00 9.6 129.5 9.7 129.6 9.7 129.6 9.6 129.4 9.6 129.5
jtwc_wp tokyo cma hko td9636
1984-09-01 06:00:00 9.4 128.1 9.5 128.0 9.5 128.2 9.5 128.0 9.4 128.2
1984-09-01 12:00:00 9.4 126.8 9.3 126.8 9.4 126.9 9.5 127.0 9.4 126.8
1984-09-01 18:00:00 9.8 125.6 9.7 125.5 9.6 125.6 9.7 125.6 9.6 125.4
1984-09-02 00:00:00 9.9 124.1 10.0 124.3 10.0 124.1 10.0 124.3 9.9 124.1
1984-09-02 06:00:00 10.3 123.0 10.4 123.2 10.3 122.6 10.2 123.2 10.3 123.0
1984-09-02 12:00:00 10.8 122.0 10.8 122.2 10.8 121.8 10.7 122.1 10.8 122.0
1984-09-02 18:00:00 11.3 121.2 11.5 121.2 11.4 120.8 11.3 121.1 11.4 121.1
1984-09-03 00:00:00 12.2 120.3 12.1 120.3 12.0 120.1 12.0 120.3 12.2 120.3
1984-09-03 06:00:00 12.9 119.4 12.8 119.5 12.8 119.5 12.9 119.3 13.0 119.4
1984-09-03 12:00:00 13.8 118.4 13.9 118.3 13.7 118.5 13.8 118.4 13.8 118.4
1984-09-03 18:00:00 14.5 117.4 14.5 117.5 14.3 117.5 14.5 117.5 14.5 117.4
1984-09-04 00:00:00 15.2 116.4 15.1 116.5 15.1 116.6 15.2 116.6 15.2 116.4
1984-09-04 06:00:00 15.9 115.4 16.0 115.4 16.0 115.5 16.0 115.5 15.9 115.4
1984-09-04 12:00:00 16.7 114.3 16.7 114.4 16.8 114.4 16.7 114.4 16.7 114.3
1984-09-04 18:00:00 17.5 113.2 17.5 113.1 17.4 113.2 17.5 113.2 17.5 113.2
1984-09-05 00:00:00 18.3 112.2 18.3 112.0 18.4 112.2 18.3 112.1 18.3 112.2
1984-09-05 06:00:00 19.2 111.2 19.1 111.1 19.1 111.2 19.2 111.1 19.2 111.3
1984-09-05 12:00:00 20.1 110.4 20.2 110.0 20.1 110.2 20.1 110.2 20.1 110.4
1984-09-05 18:00:00 20.8 109.4 21.0 109.2 20.8 109.6 20.9 109.5 20.9 109.6
1984-09-06 00:00:00 21.6 108.9 21.8 108.7 21.7 108.7 21.7 108.7 21.6 108.9
1984-09-06 06:00:00 22.5 108.0 22.6 108.1 22.5 108.2 22.5 108.0 22.3 108.1
1984-09-06 12:00:00 22.9 107.2 23.7 107.2 23.4 107.4 23.7 107.1 22.9 107.2
1984-09-06 18:00:00 25.0 106.9 25.0 106.2

top of pageTrack Data:Intensity

jtwc_wp tokyo cma hko td9636
Date Wind Pres Wind Pres Wind Pres Wind Pres Wind Pres
1984-08-26 00:00:00 20. 20.
1984-08-26 06:00:00 20. 1006. 20.
1984-08-26 12:00:00 25. 1004. 25.
1984-08-26 18:00:00 30. 1002. 23. 1004. 25.
1984-08-27 00:00:00 35. 1000. 29. 1002. 25. 1000. 35.
1984-08-27 06:00:00 40. 35. 998. 39. 996. 30. 999. 35.
1984-08-27 12:00:00 50. 35. 998. 39. 996. 35. 998. 50.
1984-08-27 18:00:00 60. 35. 998. 39. 996. 35. 998. 50.
1984-08-28 00:00:00 60. 40. 996. 39. 995. 40. 997. 60.
1984-08-28 06:00:00 60. 40. 996. 39. 995. 40. 996. 60.
1984-08-28 12:00:00 60. 40. 994. 39. 995. 45. 994. 60.
1984-08-28 18:00:00 60. 45. 992. 39. 995. 45. 992. 60.
1984-08-29 00:00:00 70. 45. 990. 39. 992. 50. 991. 70.
1984-08-29 06:00:00 70. 45. 990. 39. 990. 50. 990. 70.
1984-08-29 12:00:00 65. 45. 990. 39. 990. 50. 989. 65.
1984-08-29 18:00:00 60. 50. 985. 49. 985. 50. 988. 65.
1984-08-30 00:00:00 60. 50. 985. 49. 985. 50. 987. 60.
1984-08-30 06:00:00 60. 50. 985. 49. 983. 55. 983. 60.
1984-08-30 12:00:00 65. 55. 980. 58. 980. 60. 980. 65.
1984-08-30 18:00:00 65. 55. 975. 58. 975. 65. 975. 65.
1984-08-31 00:00:00 70. 60. 970. 68. 970. 70. 970. 70.
1984-08-31 06:00:00 80. 65. 965. 68. 965. 75. 965. 70.
1984-08-31 12:00:00 85. 70. 960. 78. 960. 80. 960. 85.
1984-08-31 18:00:00 95. 75. 960. 78. 955. 90. 955. 85.
1984-09-01 00:00:00 105. 85. 955. 87. 953. 100. 950. 105.
jtwc_wp tokyo cma hko td9636
1984-09-01 06:00:00 115. 90. 950. 97. 947. 115. 945. 105.
1984-09-01 12:00:00 125. 90. 950. 87. 950. 115. 950. 125.
1984-09-01 18:00:00 115. 90. 955. 87. 955. 110. 955. 125.
1984-09-02 00:00:00 95. 75. 965. 78. 960. 100. 960. 95.
1984-09-02 06:00:00 75. 60. 970. 68. 965. 80. 965. 95.
1984-09-02 12:00:00 65. 55. 980. 49. 980. 65. 970. 65.
1984-09-02 18:00:00 55. 50. 985. 49. 985. 55. 985. 65.
1984-09-03 00:00:00 45. 45. 992. 49. 990. 55. 982. 45.
1984-09-03 06:00:00 55. 45. 990. 58. 985. 55. 981. 45.
1984-09-03 12:00:00 65. 50. 985. 58. 980. 60. 980. 65.
1984-09-03 18:00:00 75. 50. 985. 58. 975. 65. 970. 65.
1984-09-04 00:00:00 85. 55. 980. 68. 975. 70. 970. 85.
1984-09-04 06:00:00 90. 60. 975. 78. 965. 75. 970. 85.
1984-09-04 12:00:00 100. 70. 960. 78. 960. 80. 960. 100.
1984-09-04 18:00:00 115. 90. 955. 87. 960. 90. 950. 100.
1984-09-05 00:00:00 100. 90. 955. 87. 955. 90. 950. 100.
1984-09-05 06:00:00 80. 80. 960. 78. 960. 80. 955. 100.
1984-09-05 12:00:00 70. 60. 975. 68. 970. 60. 970. 70.
1984-09-05 18:00:00 60. 50. 980. 58. 970. 60. 970. 70.
1984-09-06 00:00:00 50. 50. 980. 58. 970. 55. 975. 50.
1984-09-06 06:00:00 40. 35. 990. 39. 990. 40. 993. 50.
1984-09-06 12:00:00 30. 996. 29. 995. 25. 1000. 30.
1984-09-06 18:00:00 1004. 25. 1003.

top of page Links to source data

Source Source file Format
jtwc_wp bwp131984.txt ATCF
tokyo bst_all.txt:Line=32904:IKE:8411 JMA text table
cma CH1984BST.txt:Storm=15:Ike CMA text table
hko tc-besttrack-data.txt:Line=16556:IKE HKO Text table
td9636 cons_worldwide_trop_cyclone_18710101-19891231-003:Line=29167 TD 9636